Terminal Aerodrome Forecast
Issued by NWS

Home | Current Version | Previous Version | Text Only | Print | Product List | Glossary On
Versions: 1 2 3 4 5 6 7 8 9 10 11 12 13 14 15 16
164
FTUS45 KABQ 161741
TAFGUP
TAF
KGUP 161741Z 1618/1718 24008KT P6SM BKN040
     FM162100 28008KT P6SM VCSH SCT035 BKN050
     FM170300 VRB03KT P6SM BKN050
     FM170900 VRB03KT 3SM BR BKN010
     FM171300 VRB03KT 3/4SM BR OVC007=

USA.gov is the U.S. government's official web portal to all federal, state and local government web resources and services.